sensor_id;sensor_type;location;lat;lon;timestamp;temperature;humidity
38263;DHT22;24054;50.128;19.730;2022-08-27T00:00:24;25.60;66.90
38263;DHT22;24054;50.128;19.730;2022-08-27T00:02:51;25.60;66.90
38263;DHT22;24054;50.128;19.730;2022-08-27T00:05:18;25.60;66.90
38263;DHT22;24054;50.128;19.730;2022-08-27T00:07:47;25.60;66.80
38263;DHT22;24054;50.128;19.730;2022-08-27T00:10:18;25.60;66.90
38263;DHT22;24054;50.128;19.730;2022-08-27T00:12:46;25.60;66.90
38263;DHT22;24054;50.128;19.730;2022-08-27T00:15:15;25.60;66.80
38263;DHT22;24054;50.128;19.730;2022-08-27T00:17:43;25.60;66.80
38263;DHT22;24054;50.128;19.730;2022-08-27T00:20:13;25.60;66.80
38263;DHT22;24054;50.128;19.730;2022-08-27T00:22:41;25.50;66.70
38263;DHT22;24054;50.128;19.730;2022-08-27T00:25:09;25.60;66.80
38263;DHT22;24054;50.128;19.730;2022-08-27T00:27:37;25.60;66.80
38263;DHT22;24054;50.128;19.730;2022-08-27T00:30:06;25.50;66.70
38263;DHT22;24054;50.128;19.730;2022-08-27T00:32:35;25.50;66.70
38263;DHT22;24054;50.128;19.730;2022-08-27T00:35:03;25.50;66.60
38263;DHT22;24054;50.128;19.730;2022-08-27T00:37:31;25.50;66.70
38263;DHT22;24054;50.128;19.730;2022-08-27T00:39:58;25.50;66.60
38263;DHT22;24054;50.128;19.730;2022-08-27T00:42:25;25.50;66.60
38263;DHT22;24054;50.128;19.730;2022-08-27T00:44:52;25.50;66.60
38263;DHT22;24054;50.128;19.730;2022-08-27T00:47:21;25.50;66.60
38263;DHT22;24054;50.128;19.730;2022-08-27T00:49:54;25.50;66.60
38263;DHT22;24054;50.128;19.730;2022-08-27T00:52:25;25.50;66.60
38263;DHT22;24054;50.128;19.730;2022-08-27T00:54:57;25.50;66.50
38263;DHT22;24054;50.128;19.730;2022-08-27T00:57:25;25.50;66.60
38263;DHT22;24054;50.128;19.730;2022-08-27T00:59:53;25.50;66.50
38263;DHT22;24054;50.128;19.730;2022-08-27T01:02:20;25.50;66.50
38263;DHT22;24054;50.128;19.730;2022-08-27T01:04:54;25.50;66.50
38263;DHT22;24054;50.128;19.730;2022-08-27T01:07:22;25.50;66.50
38263;DHT22;24054;50.128;19.730;2022-08-27T01:09:52;25.50;66.40
38263;DHT22;24054;50.128;19.730;2022-08-27T01:12:21;25.50;66.40
38263;DHT22;24054;50.128;19.730;2022-08-27T01:14:48;25.50;66.40
38263;DHT22;24054;50.128;19.730;2022-08-27T01:17:16;25.50;66.70
38263;DHT22;24054;50.128;19.730;2022-08-27T01:19:46;25.50;66.30
38263;DHT22;24054;50.128;19.730;2022-08-27T01:22:22;25.50;66.30
38263;DHT22;24054;50.128;19.730;2022-08-27T01:24:53;25.40;66.20
38263;DHT22;24054;50.128;19.730;2022-08-27T01:27:24;25.50;66.30
38263;DHT22;24054;50.128;19.730;2022-08-27T01:29:51;25.50;66.30
38263;DHT22;24054;50.128;19.730;2022-08-27T01:32:22;25.50;66.30
38263;DHT22;24054;50.128;19.730;2022-08-27T01:34:50;25.40;66.20
38263;DHT22;24054;50.128;19.730;2022-08-27T01:37:18;25.50;66.20
38263;DHT22;24054;50.128;19.730;2022-08-27T01:39:45;25.40;66.20
38263;DHT22;24054;50.128;19.730;2022-08-27T01:42:17;25.50;66.20
38263;DHT22;24054;50.128;19.730;2022-08-27T01:44:47;25.40;66.10
38263;DHT22;24054;50.128;19.730;2022-08-27T01:47:14;25.50;66.20
38263;DHT22;24054;50.128;19.730;2022-08-27T01:49:42;25.40;66.10
38263;DHT22;24054;50.128;19.730;2022-08-27T01:52:09;25.40;66.10
38263;DHT22;24054;50.128;19.730;2022-08-27T01:54:36;25.40;66.10
38263;DHT22;24054;50.128;19.730;2022-08-27T01:57:04;25.40;66.10
38263;DHT22;24054;50.128;19.730;2022-08-27T01:59:32;25.40;66.10
38263;DHT22;24054;50.128;19.730;2022-08-27T02:01:59;25.40;66.10
38263;DHT22;24054;50.128;19.730;2022-08-27T02:04:28;25.40;66.10
38263;DHT22;24054;50.128;19.730;2022-08-27T02:06:56;25.40;66.10
38263;DHT22;24054;50.128;19.730;2022-08-27T02:09:23;25.40;66.10
38263;DHT22;24054;50.128;19.730;2022-08-27T02:11:51;25.40;66.10
38263;DHT22;24054;50.128;19.730;2022-08-27T02:14:18;25.40;66.10
38263;DHT22;24054;50.128;19.730;2022-08-27T02:16:46;25.20;65.90
38263;DHT22;24054;50.128;19.730;2022-08-27T02:19:13;25.40;66.00
38263;DHT22;24054;50.128;19.730;2022-08-27T02:21:41;25.30;66.00
38263;DHT22;24054;50.128;19.730;2022-08-27T02:24:08;25.30;66.00
38263;DHT22;24054;50.128;19.730;2022-08-27T02:26:35;25.40;66.00
38263;DHT22;24054;50.128;19.730;2022-08-27T02:29:03;25.40;66.00
38263;DHT22;24054;50.128;19.730;2022-08-27T02:31:30;25.40;66.00
38263;DHT22;24054;50.128;19.730;2022-08-27T02:33:59;25.40;65.90
38263;DHT22;24054;50.128;19.730;2022-08-27T02:36:26;25.30;65.90
38263;DHT22;24054;50.128;19.730;2022-08-27T02:38:53;25.40;65.90
38263;DHT22;24054;50.128;19.730;2022-08-27T02:41:20;25.40;65.90
38263;DHT22;24054;50.128;19.730;2022-08-27T02:43:47;25.30;65.80
38263;DHT22;24054;50.128;19.730;2022-08-27T02:46:14;25.30;65.80
38263;DHT22;24054;50.128;19.730;2022-08-27T02:48:41;25.30;65.80
38263;DHT22;24054;50.128;19.730;2022-08-27T02:51:11;25.30;65.80
38263;DHT22;24054;50.128;19.730;2022-08-27T02:53:37;25.30;65.80
38263;DHT22;24054;50.128;19.730;2022-08-27T02:56:05;25.30;65.80
38263;DHT22;24054;50.128;19.730;2022-08-27T02:58:32;25.40;65.90
38263;DHT22;24054;50.128;19.730;2022-08-27T03:00:59;25.30;65.80
38263;DHT22;24054;50.128;19.730;2022-08-27T03:03:27;25.30;65.80
38263;DHT22;24054;50.128;19.730;2022-08-27T03:05:54;25.30;65.80
38263;DHT22;24054;50.128;19.730;2022-08-27T03:08:24;25.30;65.80
38263;DHT22;24054;50.128;19.730;2022-08-27T03:10:51;25.30;65.80
38263;DHT22;24054;50.128;19.730;2022-08-27T03:13:18;25.30;65.80
38263;DHT22;24054;50.128;19.730;2022-08-27T03:15:45;25.30;65.80
38263;DHT22;24054;50.128;19.730;2022-08-27T03:18:12;25.30;65.80
38263;DHT22;24054;50.128;19.730;2022-08-27T03:20:46;25.30;65.80
38263;DHT22;24054;50.128;19.730;2022-08-27T03:23:14;25.30;65.80
38263;DHT22;24054;50.128;19.730;2022-08-27T03:25:47;25.30;65.80
38263;DHT22;24054;50.128;19.730;2022-08-27T03:28:16;25.30;65.80
38263;DHT22;24054;50.128;19.730;2022-08-27T03:30:47;25.30;65.80
38263;DHT22;24054;50.128;19.730;2022-08-27T03:33:14;25.30;65.80
38263;DHT22;24054;50.128;19.730;2022-08-27T03:35:42;25.30;65.80
38263;DHT22;24054;50.128;19.730;2022-08-27T03:38:10;25.30;65.80
38263;DHT22;24054;50.128;19.730;2022-08-27T03:40:36;25.30;65.80
38263;DHT22;24054;50.128;19.730;2022-08-27T03:43:05;25.30;65.80
38263;DHT22;24054;50.128;19.730;2022-08-27T03:45:32;25.30;65.80
38263;DHT22;24054;50.128;19.730;2022-08-27T03:47:59;25.20;65.70
38263;DHT22;24054;50.128;19.730;2022-08-27T03:50:25;25.30;65.80
38263;DHT22;24054;50.128;19.730;2022-08-27T03:52:53;25.30;65.80
38263;DHT22;24054;50.128;19.730;2022-08-27T03:55:20;25.30;65.70
38263;DHT22;24054;50.128;19.730;2022-08-27T03:57:47;25.30;65.70
38263;DHT22;24054;50.128;19.730;2022-08-27T04:00:16;25.30;65.80
38263;DHT22;24054;50.128;19.730;2022-08-27T04:02:43;25.30;65.70
38263;DHT22;24054;50.128;19.730;2022-08-27T04:05:11;25.30;65.80
38263;DHT22;24054;50.128;19.730;2022-08-27T04:07:39;25.30;65.70
38263;DHT22;24054;50.128;19.730;2022-08-27T04:10:08;25.20;65.60
38263;DHT22;24054;50.128;19.730;2022-08-27T04:12:36;25.20;65.60
38263;DHT22;24054;50.128;19.730;2022-08-27T04:15:05;25.20;65.70
38263;DHT22;24054;50.128;19.730;2022-08-27T04:17:33;25.20;65.70
38263;DHT22;24054;50.128;19.730;2022-08-27T04:20:00;25.20;65.70
38263;DHT22;24054;50.128;19.730;2022-08-27T04:22:28;25.20;65.70
38263;DHT22;24054;50.128;19.730;2022-08-27T04:24:54;25.20;65.70
38263;DHT22;24054;50.128;19.730;2022-08-27T04:27:22;25.20;65.60
38263;DHT22;24054;50.128;19.730;2022-08-27T04:29:53;25.20;65.60
38263;DHT22;24054;50.128;19.730;2022-08-27T04:32:20;25.20;65.70
38263;DHT22;24054;50.128;19.730;2022-08-27T04:34:52;25.30;65.80
38263;DHT22;24054;50.128;19.730;2022-08-27T04:37:19;25.20;65.70
38263;DHT22;24054;50.128;19.730;2022-08-27T04:39:46;25.20;65.70
38263;DHT22;24054;50.128;19.730;2022-08-27T04:42:15;25.20;65.70
38263;DHT22;24054;50.128;19.730;2022-08-27T04:44:44;25.20;65.70
38263;DHT22;24054;50.128;19.730;2022-08-27T04:47:11;25.20;65.70
38263;DHT22;24054;50.128;19.730;2022-08-27T04:49:39;25.20;65.70
38263;DHT22;24054;50.128;19.730;2022-08-27T04:52:07;25.20;65.70
38263;DHT22;24054;50.128;19.730;2022-08-27T04:54:34;25.20;65.70
38263;DHT22;24054;50.128;19.730;2022-08-27T04:57:04;25.20;65.70
38263;DHT22;24054;50.128;19.730;2022-08-27T04:59:32;25.20;65.70
38263;DHT22;24054;50.128;19.730;2022-08-27T05:01:59;25.20;65.80
38263;DHT22;24054;50.128;19.730;2022-08-27T05:04:30;25.20;65.80
38263;DHT22;24054;50.128;19.730;2022-08-27T05:06:57;25.20;65.70
38263;DHT22;24054;50.128;19.730;2022-08-27T05:09:27;25.20;65.80
38263;DHT22;24054;50.128;19.730;2022-08-27T05:11:54;25.20;65.80
38263;DHT22;24054;50.128;19.730;2022-08-27T05:14:22;25.20;65.80
38263;DHT22;24054;50.128;19.730;2022-08-27T05:16:54;25.20;65.80
38263;DHT22;24054;50.128;19.730;2022-08-27T05:19:21;25.20;65.80
38263;DHT22;24054;50.128;19.730;2022-08-27T05:21:49;25.20;65.80
38263;DHT22;24054;50.128;19.730;2022-08-27T05:24:18;25.20;65.80
38263;DHT22;24054;50.128;19.730;2022-08-27T05:26:47;25.30;65.90
38263;DHT22;24054;50.128;19.730;2022-08-27T05:29:15;25.30;66.00
38263;DHT22;24054;50.128;19.730;2022-08-27T05:31:42;25.30;65.90
38263;DHT22;24054;50.128;19.730;2022-08-27T05:34:13;25.30;65.70
38263;DHT22;24054;50.128;19.730;2022-08-27T05:36:41;25.30;65.20
38263;DHT22;24054;50.128;19.730;2022-08-27T05:39:08;25.20;64.50
38263;DHT22;24054;50.128;19.730;2022-08-27T05:41:35;25.20;64.00
38263;DHT22;24054;50.128;19.730;2022-08-27T05:44:07;25.20;63.70
38263;DHT22;24054;50.128;19.730;2022-08-27T05:46:37;25.20;63.00
38263;DHT22;24054;50.128;19.730;2022-08-27T05:49:04;25.10;63.20
38263;DHT22;24054;50.128;19.730;2022-08-27T05:51:33;25.10;63.10
38263;DHT22;24054;50.128;19.730;2022-08-27T05:54:02;25.10;62.70
38263;DHT22;24054;50.128;19.730;2022-08-27T05:56:33;25.10;62.70
38263;DHT22;24054;50.128;19.730;2022-08-27T05:59:00;25.10;62.60
38263;DHT22;24054;50.128;19.730;2022-08-27T06:01:48;25.10;62.30
38263;DHT22;24054;50.128;19.730;2022-08-27T06:04:17;25.10;62.30
38263;DHT22;24054;50.128;19.730;2022-08-27T06:06:45;25.10;62.00
38263;DHT22;24054;50.128;19.730;2022-08-27T06:09:14;25.10;62.10
38263;DHT22;24054;50.128;19.730;2022-08-27T06:11:42;25.10;62.00
38263;DHT22;24054;50.128;19.730;2022-08-27T06:14:11;25.10;62.00
38263;DHT22;24054;50.128;19.730;2022-08-27T06:16:38;25.10;62.00
38263;DHT22;24054;50.128;19.730;2022-08-27T06:19:07;25.10;62.00
38263;DHT22;24054;50.128;19.730;2022-08-27T06:21:36;25.10;62.00
38263;DHT22;24054;50.128;19.730;2022-08-27T06:24:03;25.10;62.20
38263;DHT22;24054;50.128;19.730;2022-08-27T06:26:31;25.10;62.40
38263;DHT22;24054;50.128;19.730;2022-08-27T06:29:01;25.10;62.50
38263;DHT22;24054;50.128;19.730;2022-08-27T06:31:28;25.10;62.30
38263;DHT22;24054;50.128;19.730;2022-08-27T06:33:58;25.00;62.20
38263;DHT22;24054;50.128;19.730;2022-08-27T06:36:28;25.10;62.30
38263;DHT22;24054;50.128;19.730;2022-08-27T06:38:56;25.10;62.30
38263;DHT22;24054;50.128;19.730;2022-08-27T06:41:26;25.10;62.40
38263;DHT22;24054;50.128;19.730;2022-08-27T06:43:54;25.10;62.50
38263;DHT22;24054;50.128;19.730;2022-08-27T06:46:24;25.10;62.50
38263;DHT22;24054;50.128;19.730;2022-08-27T06:48:53;25.10;62.50
38263;DHT22;24054;50.128;19.730;2022-08-27T06:51:22;25.10;63.00
38263;DHT22;24054;50.128;19.730;2022-08-27T06:53:53;25.10;62.30
38263;DHT22;24054;50.128;19.730;2022-08-27T06:56:23;25.10;62.40
38263;DHT22;24054;50.128;19.730;2022-08-27T06:58:51;25.10;62.40
38263;DHT22;24054;50.128;19.730;2022-08-27T07:01:21;25.10;62.50
38263;DHT22;24054;50.128;19.730;2022-08-27T07:03:49;25.10;62.40
38263;DHT22;24054;50.128;19.730;2022-08-27T07:06:16;25.20;62.50
38263;DHT22;24054;50.128;19.730;2022-08-27T07:08:44;25.10;62.40
38263;DHT22;24054;50.128;19.730;2022-08-27T07:11:13;25.20;62.50
38263;DHT22;24054;50.128;19.730;2022-08-27T07:13:40;25.20;62.40
38263;DHT22;24054;50.128;19.730;2022-08-27T07:16:10;25.20;62.70
38263;DHT22;24054;50.128;19.730;2022-08-27T07:18:38;25.30;63.00
38263;DHT22;24054;50.128;19.730;2022-08-27T07:21:06;25.20;62.80
38263;DHT22;24054;50.128;19.730;2022-08-27T07:23:35;25.20;62.80
38263;DHT22;24054;50.128;19.730;2022-08-27T07:26:06;25.30;62.70
38263;DHT22;24054;50.128;19.730;2022-08-27T07:28:35;25.30;62.80
38263;DHT22;24054;50.128;19.730;2022-08-27T07:31:03;25.30;62.70
38263;DHT22;24054;50.128;19.730;2022-08-27T07:33:30;25.30;62.70
38263;DHT22;24054;50.128;19.730;2022-08-27T07:35:57;25.30;62.50
38263;DHT22;24054;50.128;19.730;2022-08-27T07:38:24;25.30;62.60
38263;DHT22;24054;50.128;19.730;2022-08-27T07:40:51;25.30;62.50
38263;DHT22;24054;50.128;19.730;2022-08-27T07:43:19;25.30;62.40
38263;DHT22;24054;50.128;19.730;2022-08-27T07:46:05;25.40;62.20
38263;DHT22;24054;50.128;19.730;2022-08-27T07:48:32;25.40;62.00
38263;DHT22;24054;50.128;19.730;2022-08-27T07:50:59;25.40;62.10
38263;DHT22;24054;50.128;19.730;2022-08-27T07:53:30;25.40;62.10
38263;DHT22;24054;50.128;19.730;2022-08-27T07:56:01;25.50;62.20
38263;DHT22;24054;50.128;19.730;2022-08-27T07:58:29;25.50;62.20
38263;DHT22;24054;50.128;19.730;2022-08-27T08:00:56;25.50;62.20
38263;DHT22;24054;50.128;19.730;2022-08-27T08:03:24;25.50;62.30
38263;DHT22;24054;50.128;19.730;2022-08-27T08:05:51;25.50;62.40
38263;DHT22;24054;50.128;19.730;2022-08-27T08:08:19;25.50;62.30
38263;DHT22;24054;50.128;19.730;2022-08-27T08:10:46;25.60;62.30
38263;DHT22;24054;50.128;19.730;2022-08-27T08:13:14;25.60;62.20
38263;DHT22;24054;50.128;19.730;2022-08-27T08:15:42;25.60;62.30
38263;DHT22;24054;50.128;19.730;2022-08-27T08:18:10;25.70;62.30
38263;DHT22;24054;50.128;19.730;2022-08-27T08:20:38;25.70;62.30
38263;DHT22;24054;50.128;19.730;2022-08-27T08:23:06;25.70;62.20
38263;DHT22;24054;50.128;19.730;2022-08-27T08:25:34;25.70;62.30
38263;DHT22;24054;50.128;19.730;2022-08-27T08:28:01;25.80;62.30
38263;DHT22;24054;50.128;19.730;2022-08-27T08:30:28;25.80;62.30
38263;DHT22;24054;50.128;19.730;2022-08-27T08:32:55;25.80;62.30
38263;DHT22;24054;50.128;19.730;2022-08-27T08:35:22;25.80;62.20
38263;DHT22;24054;50.128;19.730;2022-08-27T08:37:50;25.90;62.30
38263;DHT22;24054;50.128;19.730;2022-08-27T08:40:26;25.90;62.30
38263;DHT22;24054;50.128;19.730;2022-08-27T08:42:54;25.90;62.20
38263;DHT22;24054;50.128;19.730;2022-08-27T08:45:26;26.00;62.20
38263;DHT22;24054;50.128;19.730;2022-08-27T08:48:00;26.00;62.10
38263;DHT22;24054;50.128;19.730;2022-08-27T08:50:35;26.00;62.00
38263;DHT22;24054;50.128;19.730;2022-08-27T08:53:10;26.10;62.00
38263;DHT22;24054;50.128;19.730;2022-08-27T08:55:43;26.10;62.00
38263;DHT22;24054;50.128;19.730;2022-08-27T08:58:18;26.10;61.90
38263;DHT22;24054;50.128;19.730;2022-08-27T09:00:51;26.20;61.90
38263;DHT22;24054;50.128;19.730;2022-08-27T09:03:19;26.10;61.70
38263;DHT22;24054;50.128;19.730;2022-08-27T09:05:49;26.20;61.70
38263;DHT22;24054;50.128;19.730;2022-08-27T09:08:25;26.30;61.70
38263;DHT22;24054;50.128;19.730;2022-08-27T09:10:58;26.30;61.80
38263;DHT22;24054;50.128;19.730;2022-08-27T09:13:35;26.30;61.70
38263;DHT22;24054;50.128;19.730;2022-08-27T09:16:04;26.30;61.50
38263;DHT22;24054;50.128;19.730;2022-08-27T09:18:34;26.40;61.60
38263;DHT22;24054;50.128;19.730;2022-08-27T09:21:08;26.40;61.40
38263;DHT22;24054;50.128;19.730;2022-08-27T09:23:43;26.40;61.40
38263;DHT22;24054;50.128;19.730;2022-08-27T09:26:20;26.50;61.50
38263;DHT22;24054;50.128;19.730;2022-08-27T09:28:47;26.50;61.50
38263;DHT22;24054;50.128;19.730;2022-08-27T09:31:35;26.60;61.60
38263;DHT22;24054;50.128;19.730;2022-08-27T09:34:05;26.60;61.60
38263;DHT22;24054;50.128;19.730;2022-08-27T09:36:32;26.70;61.60
38263;DHT22;24054;50.128;19.730;2022-08-27T09:39:04;26.70;61.60
38263;DHT22;24054;50.128;19.730;2022-08-27T09:41:39;26.70;61.60
38263;DHT22;24054;50.128;19.730;2022-08-27T09:44:09;26.70;61.30
38263;DHT22;24054;50.128;19.730;2022-08-27T09:46:37;26.70;61.10
38263;DHT22;24054;50.128;19.730;2022-08-27T09:49:14;26.80;60.90
38263;DHT22;24054;50.128;19.730;2022-08-27T09:51:45;26.80;60.80
38263;DHT22;24054;50.128;19.730;2022-08-27T09:54:38;26.80;60.50
38263;DHT22;24054;50.128;19.730;2022-08-27T09:57:06;26.80;60.50
38263;DHT22;24054;50.128;19.730;2022-08-27T09:59:34;26.80;60.20
38263;DHT22;24054;50.128;19.730;2022-08-27T10:02:06;26.80;60.10
38263;DHT22;24054;50.128;19.730;2022-08-27T10:04:40;26.90;60.30
38263;DHT22;24054;50.128;19.730;2022-08-27T10:07:25;26.90;60.00
38263;DHT22;24054;50.128;19.730;2022-08-27T10:10:00;26.90;59.80
38263;DHT22;24054;50.128;19.730;2022-08-27T10:12:33;26.90;59.50
38263;DHT22;24054;50.128;19.730;2022-08-27T10:15:03;27.00;59.30
38263;DHT22;24054;50.128;19.730;2022-08-27T10:17:40;26.90;59.30
38263;DHT22;24054;50.128;19.730;2022-08-27T10:20:16;27.00;59.30
38263;DHT22;24054;50.128;19.730;2022-08-27T10:22:51;27.00;59.40
38263;DHT22;24054;50.128;19.730;2022-08-27T10:25:33;27.00;59.30
38263;DHT22;24054;50.128;19.730;2022-08-27T10:28:09;27.00;59.10
38263;DHT22;24054;50.128;19.730;2022-08-27T10:30:51;27.00;59.00
38263;DHT22;24054;50.128;19.730;2022-08-27T10:33:26;27.00;58.60
38263;DHT22;24054;50.128;19.730;2022-08-27T10:36:02;27.10;58.80
38263;DHT22;24054;50.128;19.730;2022-08-27T10:38:36;27.10;58.90
38263;DHT22;24054;50.128;19.730;2022-08-27T10:41:14;27.10;58.70
38263;DHT22;24054;50.128;19.730;2022-08-27T10:44:22;27.10;58.50
38263;DHT22;24054;50.128;19.730;2022-08-27T10:47:04;27.20;58.60
38263;DHT22;24054;50.128;19.730;2022-08-27T10:49:42;27.10;58.20
38263;DHT22;24054;50.128;19.730;2022-08-27T10:52:16;27.20;58.60
38263;DHT22;24054;50.128;19.730;2022-08-27T10:54:51;27.20;58.30
38263;DHT22;24054;50.128;19.730;2022-08-27T10:57:27;27.20;58.10
38263;DHT22;24054;50.128;19.730;2022-08-27T11:00:04;27.30;58.20
38263;DHT22;24054;50.128;19.730;2022-08-27T11:02:38;27.30;58.00
38263;DHT22;24054;50.128;19.730;2022-08-27T11:05:15;27.30;58.00
38263;DHT22;24054;50.128;19.730;2022-08-27T11:07:46;27.30;58.10
38263;DHT22;24054;50.128;19.730;2022-08-27T11:10:19;27.40;58.30
38263;DHT22;24054;50.128;19.730;2022-08-27T11:12:53;27.40;58.30
38263;DHT22;24054;50.128;19.730;2022-08-27T11:15:24;27.40;58.10
38263;DHT22;24054;50.128;19.730;2022-08-27T11:17:58;27.40;58.10
38263;DHT22;24054;50.128;19.730;2022-08-27T11:20:29;27.40;58.20
38263;DHT22;24054;50.128;19.730;2022-08-27T11:23:02;27.40;57.90
38263;DHT22;24054;50.128;19.730;2022-08-27T11:25:41;27.50;58.20
38263;DHT22;24054;50.128;19.730;2022-08-27T11:28:14;27.40;57.80
38263;DHT22;24054;50.128;19.730;2022-08-27T11:30:51;27.50;58.10
38263;DHT22;24054;50.128;19.730;2022-08-27T11:33:27;27.50;58.10
38263;DHT22;24054;50.128;19.730;2022-08-27T11:36:12;27.50;58.10
38263;DHT22;24054;50.128;19.730;2022-08-27T11:38:53;27.50;57.80
38263;DHT22;24054;50.128;19.730;2022-08-27T11:41:47;27.50;57.80
38263;DHT22;24054;50.128;19.730;2022-08-27T11:44:21;27.50;57.40
38263;DHT22;24054;50.128;19.730;2022-08-27T11:46:52;27.50;56.80
38263;DHT22;24054;50.128;19.730;2022-08-27T11:49:27;27.50;56.70
38263;DHT22;24054;50.128;19.730;2022-08-27T11:51:58;27.50;56.50
38263;DHT22;24054;50.128;19.730;2022-08-27T11:54:28;27.50;56.30
38263;DHT22;24054;50.128;19.730;2022-08-27T11:56:56;27.50;56.80
38263;DHT22;24054;50.128;19.730;2022-08-27T11:59:31;27.50;56.60
38263;DHT22;24054;50.128;19.730;2022-08-27T12:02:22;27.50;56.60
38263;DHT22;24054;50.128;19.730;2022-08-27T12:04:51;27.50;56.40
38263;DHT22;24054;50.128;19.730;2022-08-27T12:07:33;27.50;56.30
38263;DHT22;24054;50.128;19.730;2022-08-27T12:10:28;27.50;56.30
38263;DHT22;24054;50.128;19.730;2022-08-27T12:13:08;27.50;56.40
38263;DHT22;24054;50.128;19.730;2022-08-27T12:15:49;27.50;56.00
38263;DHT22;24054;50.128;19.730;2022-08-27T12:18:41;27.60;56.40
38263;DHT22;24054;50.128;19.730;2022-08-27T12:21:17;27.60;56.40
38263;DHT22;24054;50.128;19.730;2022-08-27T12:26:54;27.50;55.80
38263;DHT22;24054;50.128;19.730;2022-08-27T12:29:34;27.60;56.00
38263;DHT22;24054;50.128;19.730;2022-08-27T12:32:18;27.60;56.00
38263;DHT22;24054;50.128;19.730;2022-08-27T12:34:51;27.50;55.60
38263;DHT22;24054;50.128;19.730;2022-08-27T12:37:25;27.50;55.50
38263;DHT22;24054;50.128;19.730;2022-08-27T12:39:54;27.50;55.00
38263;DHT22;24054;50.128;19.730;2022-08-27T12:42:21;27.50;55.20
38263;DHT22;24054;50.128;19.730;2022-08-27T12:44:53;27.40;54.80
38263;DHT22;24054;50.128;19.730;2022-08-27T12:47:22;27.40;54.90
38263;DHT22;24054;50.128;19.730;2022-08-27T12:49:52;27.40;54.70
38263;DHT22;24054;50.128;19.730;2022-08-27T12:52:40;27.40;54.70
38263;DHT22;24054;50.128;19.730;2022-08-27T12:55:18;27.40;54.80
38263;DHT22;24054;50.128;19.730;2022-08-27T12:57:55;27.40;54.60
38263;DHT22;24054;50.128;19.730;2022-08-27T13:00:26;27.30;54.70
38263;DHT22;24054;50.128;19.730;2022-08-27T13:03:17;27.30;54.70
38263;DHT22;24054;50.128;19.730;2022-08-27T13:05:47;27.30;54.40
38263;DHT22;24054;50.128;19.730;2022-08-27T13:08:19;27.30;54.40
38263;DHT22;24054;50.128;19.730;2022-08-27T13:10:46;27.20;54.30
38263;DHT22;24054;50.128;19.730;2022-08-27T13:13:15;27.20;54.50
38263;DHT22;24054;50.128;19.730;2022-08-27T13:15:45;27.20;54.20
38263;DHT22;24054;50.128;19.730;2022-08-27T13:18:15;27.20;54.20
38263;DHT22;24054;50.128;19.730;2022-08-27T13:20:43;27.10;54.00
38263;DHT22;24054;50.128;19.730;2022-08-27T13:23:15;27.10;53.90
38263;DHT22;24054;50.128;19.730;2022-08-27T13:25:53;27.10;53.80
38263;DHT22;24054;50.128;19.730;2022-08-27T13:28:25;27.10;53.80
38263;DHT22;24054;50.128;19.730;2022-08-27T13:30:52;27.00;53.80
38263;DHT22;24054;50.128;19.730;2022-08-27T13:33:26;27.00;53.80
38263;DHT22;24054;50.128;19.730;2022-08-27T13:35:54;27.00;53.70
38263;DHT22;24054;50.128;19.730;2022-08-27T13:38:23;27.00;53.50
38263;DHT22;24054;50.128;19.730;2022-08-27T13:40:55;27.00;53.70
38263;DHT22;24054;50.128;19.730;2022-08-27T13:43:28;27.00;52.90
38263;DHT22;24054;50.128;19.730;2022-08-27T13:45:57;26.90;52.80
38263;DHT22;24054;50.128;19.730;2022-08-27T13:48:27;26.90;53.00
38263;DHT22;24054;50.128;19.730;2022-08-27T13:50:57;26.90;53.00
38263;DHT22;24054;50.128;19.730;2022-08-27T13:53:26;26.90;52.70
38263;DHT22;24054;50.128;19.730;2022-08-27T13:56:22;26.80;52.20
38263;DHT22;24054;50.128;19.730;2022-08-27T13:58:50;26.80;52.20
38263;DHT22;24054;50.128;19.730;2022-08-27T14:01:26;26.80;52.30
38263;DHT22;24054;50.128;19.730;2022-08-27T14:03:58;26.80;52.30
38263;DHT22;24054;50.128;19.730;2022-08-27T14:06:28;26.70;52.20
38263;DHT22;24054;50.128;19.730;2022-08-27T14:09:08;26.80;52.80
38263;DHT22;24054;50.128;19.730;2022-08-27T14:11:36;26.80;52.80
38263;DHT22;24054;50.128;19.730;2022-08-27T14:14:04;26.80;53.20
38263;DHT22;24054;50.128;19.730;2022-08-27T14:16:32;26.80;53.50
38263;DHT22;24054;50.128;19.730;2022-08-27T14:19:07;26.80;53.20
38263;DHT22;24054;50.128;19.730;2022-08-27T14:21:38;26.70;53.10
38263;DHT22;24054;50.128;19.730;2022-08-27T14:24:06;26.70;53.00
38263;DHT22;24054;50.128;19.730;2022-08-27T14:26:33;26.70;53.30
38263;DHT22;24054;50.128;19.730;2022-08-27T14:29:03;26.70;53.20
38263;DHT22;24054;50.128;19.730;2022-08-27T14:31:30;26.70;53.40
38263;DHT22;24054;50.128;19.730;2022-08-27T14:33:57;26.70;54.10
38263;DHT22;24054;50.128;19.730;2022-08-27T14:36:28;26.70;53.60
38263;DHT22;24054;50.128;19.730;2022-08-27T14:38:57;26.70;53.20
38263;DHT22;24054;50.128;19.730;2022-08-27T14:41:24;26.70;53.50
38263;DHT22;24054;50.128;19.730;2022-08-27T14:43:51;26.70;53.60
38263;DHT22;24054;50.128;19.730;2022-08-27T14:46:26;26.70;53.90
38263;DHT22;24054;50.128;19.730;2022-08-27T14:48:55;26.70;54.00
38263;DHT22;24054;50.128;19.730;2022-08-27T14:51:29;26.70;54.30
38263;DHT22;24054;50.128;19.730;2022-08-27T14:53:57;26.70;54.50
38263;DHT22;24054;50.128;19.730;2022-08-27T14:56:24;26.70;54.70
38263;DHT22;24054;50.128;19.730;2022-08-27T14:58:51;26.70;54.90
38263;DHT22;24054;50.128;19.730;2022-08-27T15:01:21;26.70;55.00
38263;DHT22;24054;50.128;19.730;2022-08-27T15:03:49;26.70;55.10
38263;DHT22;24054;50.128;19.730;2022-08-27T15:06:18;26.70;55.30
38263;DHT22;24054;50.128;19.730;2022-08-27T15:08:48;26.70;55.40
38263;DHT22;24054;50.128;19.730;2022-08-27T15:11:17;26.70;55.60
38263;DHT22;24054;50.128;19.730;2022-08-27T15:13:44;26.70;55.70
38263;DHT22;24054;50.128;19.730;2022-08-27T15:16:13;26.70;55.80
38263;DHT22;24054;50.128;19.730;2022-08-27T15:18:42;26.70;55.90
38263;DHT22;24054;50.128;19.730;2022-08-27T15:21:09;26.70;56.00
38263;DHT22;24054;50.128;19.730;2022-08-27T15:23:37;26.60;56.00
38263;DHT22;24054;50.128;19.730;2022-08-27T15:26:05;26.70;56.10
38263;DHT22;24054;50.128;19.730;2022-08-27T15:28:32;26.60;56.20
38263;DHT22;24054;50.128;19.730;2022-08-27T15:30:59;26.60;56.40
38263;DHT22;24054;50.128;19.730;2022-08-27T15:33:26;26.60;56.50
38263;DHT22;24054;50.128;19.730;2022-08-27T15:35:53;26.60;56.70
38263;DHT22;24054;50.128;19.730;2022-08-27T15:38:20;26.60;56.90